sensor_id;sensor_type;location;lat;lon;timestamp;pressure;altitude;pressure_sealevel;temperature;humidity
44309;BME280;30022;55.846;37.340;2022-10-01T00:01:46;49632.94;;;-143.51;25.70
44309;BME280;30022;55.846;37.340;2022-10-01T00:04:12;49632.94;;;-143.51;25.91
44309;BME280;30022;55.846;37.340;2022-10-01T00:06:38;49700.16;;;-143.51;25.84
44309;BME280;30022;55.846;37.340;2022-10-01T00:09:07;49597.38;;;-143.51;25.74
44309;BME280;30022;55.846;37.340;2022-10-01T00:11:37;49629.00;;;-143.51;25.60
44309;BME280;30022;55.846;37.340;2022-10-01T00:14:03;49567.72;;;-143.51;25.74
44309;BME280;30022;55.846;37.340;2022-10-01T00:16:31;49581.56;;;-143.51;25.91
44309;BME280;30022;55.846;37.340;2022-10-01T00:19:01;49569.69;;;-143.51;25.89
44309;BME280;30022;55.846;37.340;2022-10-01T00:21:30;49490.66;;;-143.51;25.69
44309;BME280;30022;55.846;37.340;2022-10-01T00:23:57;49504.47;;;-143.51;25.76
44309;BME280;30022;55.846;37.340;2022-10-01T00:26:47;49526.22;;;-143.51;25.74
44309;BME280;30022;55.846;37.340;2022-10-01T00:29:14;49486.69;;;-143.51;25.89
44309;BME280;30022;55.846;37.340;2022-10-01T00:31:41;49652.72;;;-143.51;25.87
44309;BME280;30022;55.846;37.340;2022-10-01T00:34:08;49648.75;;;-143.51;25.61
44309;BME280;30022;55.846;37.340;2022-10-01T00:36:35;49640.84;;;-143.51;25.42
44309;BME280;30022;55.846;37.340;2022-10-01T00:39:01;49488.69;;;-143.51;25.57
44309;BME280;30022;55.846;37.340;2022-10-01T00:41:32;49348.38;;;-143.51;25.42
44309;BME280;30022;55.846;37.340;2022-10-01T00:44:00;49364.16;;;-143.51;25.64
44309;BME280;30022;55.846;37.340;2022-10-01T00:46:28;49563.78;;;-143.51;25.50
44309;BME280;30022;55.846;37.340;2022-10-01T00:49:09;49565.75;;;-143.51;25.10
44309;BME280;30022;55.846;37.340;2022-10-01T00:51:49;49378.00;;;-143.51;25.31
44309;BME280;30022;55.846;37.340;2022-10-01T00:54:22;49409.63;;;-143.51;25.31
44309;BME280;30022;55.846;37.340;2022-10-01T00:56:50;49368.13;;;-143.51;25.22
44309;BME280;30022;55.846;37.340;2022-10-01T00:59:20;49435.31;;;-143.51;25.26
44309;BME280;30022;55.846;37.340;2022-10-01T01:01:46;49453.09;;;-143.51;25.27
44309;BME280;30022;55.846;37.340;2022-10-01T01:04:13;49447.19;;;-143.51;25.18
44309;BME280;30022;55.846;37.340;2022-10-01T01:07:00;49383.94;;;-143.51;25.15
44309;BME280;30022;55.846;37.340;2022-10-01T01:09:38;49378.00;;;-143.51;25.01
44309;BME280;30022;55.846;37.340;2022-10-01T01:12:18;49395.78;;;-143.51;24.97
44309;BME280;30022;55.846;37.340;2022-10-01T01:17:40;49488.69;;;-143.51;24.91
44309;BME280;30022;55.846;37.340;2022-10-01T01:22:39;49745.59;;;-143.51;24.73
44309;BME280;30022;55.846;37.340;2022-10-01T01:25:12;49462.97;;;-143.51;24.90
44309;BME280;30022;55.846;37.340;2022-10-01T01:27:45;49427.41;;;-143.51;24.97
44309;BME280;30022;55.846;37.340;2022-10-01T01:30:14;49354.28;;;-143.51;24.83
44309;BME280;30022;55.846;37.340;2022-10-01T01:32:45;49318.72;;;-143.51;24.86
44309;BME280;30022;55.846;37.340;2022-10-01T01:35:20;49241.66;;;-143.51;24.91
44309;BME280;30022;55.846;37.340;2022-10-01T01:37:54;49237.69;;;-143.51;24.93
44309;BME280;30022;55.846;37.340;2022-10-01T01:40:24;49279.19;;;-143.51;24.92
44309;BME280;30022;55.846;37.340;2022-10-01T01:42:52;49223.88;;;-143.51;25.05
44309;BME280;30022;55.846;37.340;2022-10-01T01:45:21;49206.06;;;-143.51;25.08
44309;BME280;30022;55.846;37.340;2022-10-01T01:47:49;49229.78;;;-143.51;25.06
44309;BME280;30022;55.846;37.340;2022-10-01T01:50:20;49243.63;;;-143.51;25.07
44309;BME280;30022;55.846;37.340;2022-10-01T01:52:48;49350.34;;;-143.51;25.04
44309;BME280;30022;55.846;37.340;2022-10-01T01:55:15;49314.78;;;-143.51;24.92
44309;BME280;30022;55.846;37.340;2022-10-01T01:57:42;49300.94;;;-143.51;24.85
44309;BME280;30022;55.846;37.340;2022-10-01T02:00:10;49291.06;;;-143.51;24.94
44309;BME280;30022;55.846;37.340;2022-10-01T02:02:38;49405.66;;;-143.51;24.84
44309;BME280;30022;55.846;37.340;2022-10-01T02:05:09;49411.59;;;-143.51;25.02
44309;BME280;30022;55.846;37.340;2022-10-01T02:20:51;49617.13;;;-143.51;24.66
44309;BME280;30022;55.846;37.340;2022-10-01T02:23:27;49607.25;;;-143.51;24.83
44309;BME280;30022;55.846;37.340;2022-10-01T02:25:56;49557.84;;;-143.51;25.01
44309;BME280;30022;55.846;37.340;2022-10-01T02:28:23;49522.28;;;-143.51;24.98
44309;BME280;30022;55.846;37.340;2022-10-01T02:30:50;49466.94;;;-143.51;24.93
44309;BME280;30022;55.846;37.340;2022-10-01T02:33:23;49328.59;;;-143.51;24.89
44309;BME280;30022;55.846;37.340;2022-10-01T02:35:51;49407.66;;;-143.51;24.97
44309;BME280;30022;55.846;37.340;2022-10-01T02:38:18;49419.50;;;-143.51;25.00
44309;BME280;30022;55.846;37.340;2022-10-01T02:40:45;49457.06;;;-143.51;24.79
44309;BME280;30022;55.846;37.340;2022-10-01T02:43:21;49447.19;;;-143.51;25.00
44309;BME280;30022;55.846;37.340;2022-10-01T02:45:50;49425.44;;;-143.51;24.92
44309;BME280;30022;55.846;37.340;2022-10-01T02:48:19;49494.59;;;-143.51;24.75
44309;BME280;30022;55.846;37.340;2022-10-01T02:50:47;49538.09;;;-143.51;24.72
44309;BME280;30022;55.846;37.340;2022-10-01T02:53:23;49512.38;;;-143.51;24.62
44309;BME280;30022;55.846;37.340;2022-10-01T02:55:52;49403.69;;;-143.51;24.81
44309;BME280;30022;55.846;37.340;2022-10-01T02:58:20;49498.56;;;-143.51;24.86
44309;BME280;30022;55.846;37.340;2022-10-01T03:00:50;49417.53;;;-143.51;24.83
44309;BME280;30022;55.846;37.340;2022-10-01T03:03:18;49476.81;;;-143.51;24.88
44309;BME280;30022;55.846;37.340;2022-10-01T03:05:44;49569.69;;;-143.51;24.83
44309;BME280;30022;55.846;37.340;2022-10-01T03:08:11;49559.81;;;-143.51;24.81
44309;BME280;30022;55.846;37.340;2022-10-01T03:10:38;49611.22;;;-143.51;24.78
44309;BME280;30022;55.846;37.340;2022-10-01T03:13:04;49621.09;;;-143.51;24.89
44309;BME280;30022;55.846;37.340;2022-10-01T03:15:30;49397.78;;;-143.51;24.60
44309;BME280;30022;55.846;37.340;2022-10-01T03:17:56;49429.38;;;-143.51;24.84
44309;BME280;30022;55.846;37.340;2022-10-01T03:20:22;49478.78;;;-143.51;24.85
44309;BME280;30022;55.846;37.340;2022-10-01T03:22:49;49378.00;;;-143.51;24.82
44309;BME280;30022;55.846;37.340;2022-10-01T03:25:16;49464.97;;;-143.51;24.75
44309;BME280;30022;55.846;37.340;2022-10-01T03:27:43;49433.34;;;-143.51;24.68
44309;BME280;30022;55.846;37.340;2022-10-01T03:30:13;49466.94;;;-143.51;24.71
44309;BME280;30022;55.846;37.340;2022-10-01T03:32:39;49474.84;;;-143.51;24.70
44309;BME280;30022;55.846;37.340;2022-10-01T03:35:06;49538.09;;;-143.51;24.68
44309;BME280;30022;55.846;37.340;2022-10-01T03:37:33;49532.16;;;-143.51;24.60
44309;BME280;30022;55.846;37.340;2022-10-01T03:40:01;49577.59;;;-143.51;24.61
44309;BME280;30022;55.846;37.340;2022-10-01T03:42:29;49536.09;;;-143.51;24.68
44309;BME280;30022;55.846;37.340;2022-10-01T03:44:55;49534.13;;;-143.51;24.47
44309;BME280;30022;55.846;37.340;2022-10-01T03:47:23;49530.19;;;-143.51;24.72
44309;BME280;30022;55.846;37.340;2022-10-01T03:49:51;49518.31;;;-143.51;24.50
44309;BME280;30022;55.846;37.340;2022-10-01T03:52:17;49443.22;;;-143.51;24.58
44309;BME280;30022;55.846;37.340;2022-10-01T03:54:47;49474.84;;;-143.51;24.50
44309;BME280;30022;55.846;37.340;2022-10-01T03:57:14;49330.56;;;-143.51;24.57
44309;BME280;30022;55.846;37.340;2022-10-01T03:59:42;49425.44;;;-143.51;24.79
44309;BME280;30022;55.846;37.340;2022-10-01T04:02:13;49472.88;;;-143.51;24.52
44309;BME280;30022;55.846;37.340;2022-10-01T04:04:48;49411.59;;;-143.51;24.63
44309;BME280;30022;55.846;37.340;2022-10-01T04:07:19;49261.41;;;-143.51;24.54
44309;BME280;30022;55.846;37.340;2022-10-01T04:09:45;49336.50;;;-143.51;24.70
44309;BME280;30022;55.846;37.340;2022-10-01T04:12:11;49350.34;;;-143.51;24.74
44309;BME280;30022;55.846;37.340;2022-10-01T04:14:37;49253.50;;;-143.51;24.33
44309;BME280;30022;55.846;37.340;2022-10-01T04:17:05;49206.06;;;-143.51;24.68
44309;BME280;30022;55.846;37.340;2022-10-01T04:19:31;49320.69;;;-143.51;24.70
44309;BME280;30022;55.846;37.340;2022-10-01T04:22:00;49344.41;;;-143.51;24.44
44309;BME280;30022;55.846;37.340;2022-10-01T04:24:26;49249.56;;;-143.51;24.65
44309;BME280;30022;55.846;37.340;2022-10-01T04:26:55;49474.84;;;-143.51;24.60
44309;BME280;30022;55.846;37.340;2022-10-01T04:29:22;49520.28;;;-143.51;24.46
44309;BME280;30022;55.846;37.340;2022-10-01T04:31:48;49498.56;;;-143.51;24.12
44309;BME280;30022;55.846;37.340;2022-10-01T04:34:15;49508.44;;;-143.51;24.33
44309;BME280;30022;55.846;37.340;2022-10-01T04:36:47;49443.22;;;-143.51;24.37
44309;BME280;30022;55.846;37.340;2022-10-01T04:39:13;49658.63;;;-143.51;23.61
44309;BME280;30022;55.846;37.340;2022-10-01T04:41:39;49777.22;;;-143.51;23.45
44309;BME280;30022;55.846;37.340;2022-10-01T04:44:06;49980.81;;;-143.51;23.38
44309;BME280;30022;55.846;37.340;2022-10-01T04:46:40;49998.59;;;-143.51;23.36
44309;BME280;30022;55.846;37.340;2022-10-01T04:49:07;50085.56;;;-143.51;23.18
44309;BME280;30022;55.846;37.340;2022-10-01T04:51:33;50138.91;;;-143.51;23.27
44309;BME280;30022;55.846;37.340;2022-10-01T04:54:02;50170.56;;;-143.51;23.03
44309;BME280;30022;55.846;37.340;2022-10-01T04:56:29;50178.47;;;-143.51;23.11
44309;BME280;30022;55.846;37.340;2022-10-01T04:58:54;50219.97;;;-143.51;23.23
44309;BME280;30022;55.846;37.340;2022-10-01T05:01:21;50136.94;;;-143.51;23.19
44309;BME280;30022;55.846;37.340;2022-10-01T05:03:53;50206.13;;;-143.51;23.26
44309;BME280;30022;55.846;37.340;2022-10-01T05:06:39;50389.97;;;-143.51;23.05
44309;BME280;30022;55.846;37.340;2022-10-01T05:09:06;50208.09;;;-143.51;22.94
44309;BME280;30022;55.846;37.340;2022-10-01T05:11:32;50231.81;;;-143.51;23.11
44309;BME280;30022;55.846;37.340;2022-10-01T05:14:03;50293.09;;;-143.51;23.06
44309;BME280;30022;55.846;37.340;2022-10-01T05:16:29;50316.81;;;-143.51;23.03
44309;BME280;30022;55.846;37.340;2022-10-01T05:18:57;50308.91;;;-143.51;22.85
44309;BME280;30022;55.846;37.340;2022-10-01T05:21:24;50289.16;;;-143.51;22.93
44309;BME280;30022;55.846;37.340;2022-10-01T05:23:52;50393.91;;;-143.51;22.79
44309;BME280;30022;55.846;37.340;2022-10-01T05:26:20;50457.16;;;-143.51;22.94
44309;BME280;30022;55.846;37.340;2022-10-01T05:28:47;50445.31;;;-143.51;22.54
44309;BME280;30022;55.846;37.340;2022-10-01T05:31:13;50354.38;;;-143.51;22.71
44309;BME280;30022;55.846;37.340;2022-10-01T05:33:45;50326.72;;;-143.51;22.69
44309;BME280;30022;55.846;37.340;2022-10-01T05:36:19;50449.25;;;-143.51;22.79
44309;BME280;30022;55.846;37.340;2022-10-01T05:39:09;50561.94;;;-143.51;22.69
44309;BME280;30022;55.846;37.340;2022-10-01T05:41:36;50445.31;;;-143.51;22.61
44309;BME280;30022;55.846;37.340;2022-10-01T05:44:06;50352.41;;;-143.51;22.61
44309;BME280;30022;55.846;37.340;2022-10-01T05:46:32;50401.81;;;-143.51;22.84
44309;BME280;30022;55.846;37.340;2022-10-01T05:48:59;50496.69;;;-143.51;22.94
44309;BME280;30022;55.846;37.340;2022-10-01T05:51:26;50465.06;;;-143.51;22.69
44309;BME280;30022;55.846;37.340;2022-10-01T05:53:53;50409.72;;;-143.51;22.72
44309;BME280;30022;55.846;37.340;2022-10-01T05:56:25;50376.13;;;-143.51;23.08
44309;BME280;30022;55.846;37.340;2022-10-01T05:58:51;50348.44;;;-143.51;23.02
44309;BME280;30022;55.846;37.340;2022-10-01T06:01:20;50506.59;;;-143.51;22.87
44309;BME280;30022;55.846;37.340;2022-10-01T06:03:54;50589.63;;;-143.51;22.95
44309;BME280;30022;55.846;37.340;2022-10-01T06:07:10;50411.69;;;-143.51;22.78
44309;BME280;30022;55.846;37.340;2022-10-01T06:09:36;50380.06;;;-143.51;22.96
44309;BME280;30022;55.846;37.340;2022-10-01T06:12:05;50386.00;;;-143.51;22.67
44309;BME280;30022;55.846;37.340;2022-10-01T06:14:34;50332.63;;;-143.51;22.93
44309;BME280;30022;55.846;37.340;2022-10-01T06:17:00;50257.53;;;-143.51;23.11
44309;BME280;30022;55.846;37.340;2022-10-01T06:19:29;50318.78;;;-143.51;22.96
44309;BME280;30022;55.846;37.340;2022-10-01T06:22:09;50336.59;;;-143.51;23.20
44309;BME280;30022;55.846;37.340;2022-10-01T06:24:37;50346.47;;;-143.51;22.96
44309;BME280;30022;55.846;37.340;2022-10-01T06:27:06;50293.09;;;-143.51;23.32
44309;BME280;30022;55.846;37.340;2022-10-01T06:29:32;50200.19;;;-143.51;23.62
44309;BME280;30022;55.846;37.340;2022-10-01T06:32:03;50223.91;;;-143.51;23.79
44309;BME280;30022;55.846;37.340;2022-10-01T06:34:30;50200.19;;;-143.51;23.57
44309;BME280;30022;55.846;37.340;2022-10-01T06:36:55;50212.06;;;-143.51;23.71
44309;BME280;30022;55.846;37.340;2022-10-01T06:39:25;50144.84;;;-143.51;23.84
44309;BME280;30022;55.846;37.340;2022-10-01T06:42:01;50174.50;;;-143.51;23.77
44309;BME280;30022;55.846;37.340;2022-10-01T06:45:02;50049.97;;;-143.51;23.74
44309;BME280;30022;55.846;37.340;2022-10-01T06:47:53;49972.88;;;-143.51;23.43
44309;BME280;30022;55.846;37.340;2022-10-01T06:50:42;49864.19;;;-143.51;23.51
44309;BME280;30022;55.846;37.340;2022-10-01T06:56:28;49700.16;;;-143.51;23.80
44309;BME280;30022;55.846;37.340;2022-10-01T06:59:09;49777.22;;;-143.51;23.83
44309;BME280;30022;55.846;37.340;2022-10-01T07:01:55;49719.91;;;-143.51;23.88
44309;BME280;30022;55.846;37.340;2022-10-01T07:04:23;49619.13;;;-143.51;23.85
44309;BME280;30022;55.846;37.340;2022-10-01T07:07:00;49743.63;;;-143.51;23.85
44309;BME280;30022;55.846;37.340;2022-10-01T07:09:54;49682.34;;;-143.51;23.70
44309;BME280;30022;55.846;37.340;2022-10-01T07:22:39;49822.69;;;-143.51;24.09
44309;BME280;30022;55.846;37.340;2022-10-01T07:25:25;49957.09;;;-143.51;24.30
44309;BME280;30022;55.846;37.340;2022-10-01T07:27:57;50083.56;;;-143.51;24.03
44309;BME280;30022;55.846;37.340;2022-10-01T07:30:26;50034.16;;;-143.51;24.09
44309;BME280;30022;55.846;37.340;2022-10-01T07:35:42;50204.16;;;-143.51;24.24
44309;BME280;30022;55.846;37.340;2022-10-01T07:38:11;50138.91;;;-143.51;24.13
44309;BME280;30022;55.846;37.340;2022-10-01T07:40:38;50249.63;;;-143.51;24.32
44309;BME280;30022;55.846;37.340;2022-10-01T07:43:13;50342.53;;;-143.51;24.25
44309;BME280;30022;55.846;37.340;2022-10-01T07:45:52;50429.50;;;-143.51;24.01
44309;BME280;30022;55.846;37.340;2022-10-01T07:48:47;50445.31;;;-143.51;24.04
44309;BME280;30022;55.846;37.340;2022-10-01T07:51:22;50548.09;;;-143.51;24.09
44309;BME280;30022;55.846;37.340;2022-10-01T07:54:15;50465.06;;;-143.51;24.09
44309;BME280;30022;55.846;37.340;2022-10-01T08:00:07;50403.78;;;-143.51;24.07
44309;BME280;30022;55.846;37.340;2022-10-01T08:02:53;50328.69;;;-143.51;24.14
44309;BME280;30022;55.846;37.340;2022-10-01T08:11:30;50366.25;;;-143.51;24.20
44309;BME280;30022;55.846;37.340;2022-10-01T08:14:03;50587.63;;;-143.51;24.37
44309;BME280;30022;55.846;37.340;2022-10-01T08:19:48;50710.19;;;-143.51;23.99
44309;BME280;30022;55.846;37.340;2022-10-01T08:22:20;50656.81;;;-143.51;24.26
44309;BME280;30022;55.846;37.340;2022-10-01T08:27:47;50965.22;;;-143.51;24.32
44309;BME280;30022;55.846;37.340;2022-10-01T08:30:26;50921.72;;;-143.51;24.40
44309;BME280;30022;55.846;37.340;2022-10-01T08:33:17;50834.75;;;-143.51;24.44
44309;BME280;30022;55.846;37.340;2022-10-01T08:35:44;50870.34;;;-143.51;24.38
44309;BME280;30022;55.846;37.340;2022-10-01T08:38:13;50862.44;;;-143.51;24.47
44309;BME280;30022;55.846;37.340;2022-10-01T08:40:45;50896.03;;;-143.51;24.41
44309;BME280;30022;55.846;37.340;2022-10-01T08:56:39;50785.31;;;-143.51;24.89
44309;BME280;30022;55.846;37.340;2022-10-01T09:01:40;50627.16;;;-143.51;25.98
44309;BME280;30022;55.846;37.340;2022-10-01T09:04:12;50704.28;;;-143.51;26.06
44309;BME280;30022;55.846;37.340;2022-10-01T09:06:38;50554.03;;;-143.51;26.20
44309;BME280;30022;55.846;37.340;2022-10-01T09:09:20;50520.44;;;-143.51;25.76
44309;BME280;30022;55.846;37.340;2022-10-01T09:11:51;51190.63;;;-143.51;25.46
44309;BME280;30022;55.846;37.340;2022-10-01T09:20:20;50601.47;;;-143.51;25.84
44309;BME280;30022;55.846;37.340;2022-10-01T09:25:37;50781.38;;;-143.51;25.51
44309;BME280;30022;55.846;37.340;2022-10-01T09:28:31;50542.16;;;-143.51;25.81
44309;BME280;30022;55.846;37.340;2022-10-01T09:34:11;51259.81;;;-143.51;24.28
44309;BME280;30022;55.846;37.340;2022-10-01T09:42:08;51279.59;;;-143.51;23.83
44309;BME280;30022;55.846;37.340;2022-10-01T09:44:51;51218.28;;;-143.51;23.85
44309;BME280;30022;55.846;37.340;2022-10-01T09:47:25;51273.66;;;-143.51;23.93
44309;BME280;30022;55.846;37.340;2022-10-01T09:50:04;51303.31;;;-143.51;23.90
44309;BME280;30022;55.846;37.340;2022-10-01T09:52:43;51313.19;;;-143.51;23.84
44309;BME280;30022;55.846;37.340;2022-10-01T09:55:31;51332.97;;;-143.51;23.75
44309;BME280;30022;55.846;37.340;2022-10-01T09:58:33;51291.44;;;-143.51;23.67
44309;BME280;30022;55.846;37.340;2022-10-01T10:01:19;51332.97;;;-143.51;23.75
44309;BME280;30022;55.846;37.340;2022-10-01T10:04:05;51396.25;;;-143.51;23.71
44309;BME280;30022;55.846;37.340;2022-10-01T10:06:32;51356.69;;;-143.51;23.66
44309;BME280;30022;55.846;37.340;2022-10-01T10:08:58;51364.59;;;-143.51;23.72
44309;BME280;30022;55.846;37.340;2022-10-01T10:11:33;51489.16;;;-143.51;23.71
44309;BME280;30022;55.846;37.340;2022-10-01T10:17:27;51192.59;;;-143.51;23.78
44309;BME280;30022;55.846;37.340;2022-10-01T10:20:10;51180.72;;;-143.51;23.62
44309;BME280;30022;55.846;37.340;2022-10-01T10:22:41;51289.47;;;-143.51;23.70
44309;BME280;30022;55.846;37.340;2022-10-01T10:25:13;51285.50;;;-143.51;23.70
44309;BME280;30022;55.846;37.340;2022-10-01T10:27:55;51253.88;;;-143.51;23.61
44309;BME280;30022;55.846;37.340;2022-10-01T10:30:23;51244.00;;;-143.51;23.56
44309;BME280;30022;55.846;37.340;2022-10-01T10:32:49;51275.63;;;-143.51;23.64
44309;BME280;30022;55.846;37.340;2022-10-01T10:35:23;51226.19;;;-143.51;23.73
44309;BME280;30022;55.846;37.340;2022-10-01T10:37:51;51196.53;;;-143.51;23.62
44309;BME280;30022;55.846;37.340;2022-10-01T10:40:18;51214.34;;;-143.51;23.68
44309;BME280;30022;55.846;37.340;2022-10-01T10:42:47;51253.88;;;-143.51;23.51
44309;BME280;30022;55.846;37.340;2022-10-01T10:45:16;51212.38;;;-143.51;23.59
44309;BME280;30022;55.846;37.340;2022-10-01T10:47:46;51226.19;;;-143.51;23.58
44309;BME280;30022;55.846;37.340;2022-10-01T10:50:21;51228.19;;;-143.51;23.61
44309;BME280;30022;55.846;37.340;2022-10-01T10:52:51;51253.88;;;-143.51;23.77
44309;BME280;30022;55.846;37.340;2022-10-01T10:55:21;51129.31;;;-143.51;23.62
44309;BME280;30022;55.846;37.340;2022-10-01T10:58:11;51000.81;;;-143.51;23.62
44309;BME280;30022;55.846;37.340;2022-10-01T11:01:25;50747.75;;;-143.51;23.96
44309;BME280;30022;55.846;37.340;2022-10-01T11:03:58;50801.13;;;-143.51;23.93
44309;BME280;30022;55.846;37.340;2022-10-01T11:06:38;50743.81;;;-143.51;24.17
44309;BME280;30022;55.846;37.340;2022-10-01T11:09:05;50708.22;;;-143.51;23.80
44309;BME280;30022;55.846;37.340;2022-10-01T11:20:00;50619.25;;;-143.51;24.57
44309;BME280;30022;55.846;37.340;2022-10-01T11:28:21;50306.94;;;-143.51;24.46
44309;BME280;30022;55.846;37.340;2022-10-01T11:30:22;50360.31;;;-143.51;25.10
44309;BME280;30022;55.846;37.340;2022-10-01T11:33:07;50397.88;;;-143.51;24.78
44309;BME280;30022;55.846;37.340;2022-10-01T11:40:34;50571.81;;;-143.51;24.50
44309;BME280;30022;55.846;37.340;2022-10-01T11:43:14;50542.16;;;-143.51;24.96
44309;BME280;30022;55.846;37.340;2022-10-01T11:49:14;50567.88;;;-143.51;24.89
44309;BME280;30022;55.846;37.340;2022-10-01T11:51:44;50595.53;;;-143.51;24.79
44309;BME280;30022;55.846;37.340;2022-10-01T11:54:20;50494.72;;;-143.51;24.91
44309;BME280;30022;55.846;37.340;2022-10-01T11:57:10;50559.97;;;-143.51;24.64
44309;BME280;30022;55.846;37.340;2022-10-01T12:00:05;50611.34;;;-143.51;24.92
44309;BME280;30022;55.846;37.340;2022-10-01T12:02:45;50522.41;;;-143.51;24.81
44309;BME280;30022;55.846;37.340;2022-10-01T12:05:17;50463.09;;;-143.51;24.86
44309;BME280;30022;55.846;37.340;2022-10-01T12:10:45;50474.97;;;-143.51;24.75
44309;BME280;30022;55.846;37.340;2022-10-01T12:15:48;50496.69;;;-143.51;24.83
44309;BME280;30022;55.846;37.340;2022-10-01T12:18:21;50542.16;;;-143.51;24.90
44309;BME280;30022;55.846;37.340;2022-10-01T12:23:59;50656.81;;;-143.51;24.81
44309;BME280;30022;55.846;37.340;2022-10-01T12:26:46;50735.91;;;-143.51;24.74
44309;BME280;30022;55.846;37.340;2022-10-01T12:29:18;50844.63;;;-143.51;24.59
44309;BME280;30022;55.846;37.340;2022-10-01T12:34:39;50775.44;;;-143.51;24.64
44309;BME280;30022;55.846;37.340;2022-10-01T12:45:32;50763.56;;;-143.51;24.85
44309;BME280;30022;55.846;37.340;2022-10-01T12:53:29;50822.88;;;-143.51;24.83
44309;BME280;30022;55.846;37.340;2022-10-01T12:56:01;50733.94;;;-143.51;25.00
44309;BME280;30022;55.846;37.340;2022-10-01T12:58:42;50710.19;;;-143.51;24.73
44309;BME280;30022;55.846;37.340;2022-10-01T13:15:43;50615.31;;;-143.51;24.91
44309;BME280;30022;55.846;37.340;2022-10-01T13:18:49;50781.38;;;-143.51;24.60
44309;BME280;30022;55.846;37.340;2022-10-01T13:23:57;50765.56;;;-143.51;24.70
44309;BME280;30022;55.846;37.340;2022-10-01T13:26:34;50739.84;;;-143.51;24.83
44309;BME280;30022;55.846;37.340;2022-10-01T13:31:38;50862.44;;;-143.51;24.68
44309;BME280;30022;55.846;37.340;2022-10-01T13:34:39;50862.44;;;-143.51;24.85
44309;BME280;30022;55.846;37.340;2022-10-01T13:40:01;50856.50;;;-143.51;24.75
44309;BME280;30022;55.846;37.340;2022-10-01T13:43:14;50820.91;;;-143.51;24.44
44309;BME280;30022;55.846;37.340;2022-10-01T13:46:05;50779.41;;;-143.51;24.66
44309;BME280;30022;55.846;37.340;2022-10-01T13:48:44;50813.00;;;-143.51;24.44
44309;BME280;30022;55.846;37.340;2022-10-01T13:51:37;50771.50;;;-143.51;24.54
44309;BME280;30022;55.846;37.340;2022-10-01T13:54:14;50773.47;;;-143.51;24.58
44309;BME280;30022;55.846;37.340;2022-10-01T13:57:28;50842.66;;;-143.51;24.64
44309;BME280;30022;55.846;37.340;2022-10-01T14:02:42;50826.84;;;-143.51;24.28
44309;BME280;30022;55.846;37.340;2022-10-01T14:05:35;50789.28;;;-143.51;24.21
44309;BME280;30022;55.846;37.340;2022-10-01T14:08:16;50814.97;;;-143.51;24.01
44309;BME280;30022;55.846;37.340;2022-10-01T14:11:08;50763.56;;;-143.51;23.93
44309;BME280;30022;55.846;37.340;2022-10-01T14:14:54;50862.44;;;-143.51;23.90
44309;BME280;30022;55.846;37.340;2022-10-01T14:17:11;50864.41;;;-143.51;23.75
44309;BME280;30022;55.846;37.340;2022-10-01T14:19:45;50888.13;;;-143.51;23.81
44309;BME280;30022;55.846;37.340;2022-10-01T14:22:51;50888.13;;;-143.51;23.85
44309;BME280;30022;55.846;37.340;2022-10-01T14:27:51;51036.41;;;-143.51;23.93
44309;BME280;30022;55.846;37.340;2022-10-01T14:30:29;51050.25;;;-143.51;23.75
44309;BME280;30022;55.846;37.340;2022-10-01T14:33:18;51054.19;;;-143.51;23.76
44309;BME280;30022;55.846;37.340;2022-10-01T14:36:02;51153.03;;;-143.51;23.66
44309;BME280;30022;55.846;37.340;2022-10-01T14:38:34;51131.31;;;-143.51;23.75
44309;BME280;30022;55.846;37.340;2022-10-01T14:41:01;51147.13;;;-143.51;23.80
44309;BME280;30022;55.846;37.340;2022-10-01T14:43:30;51164.91;;;-143.51;23.62
44309;BME280;30022;55.846;37.340;2022-10-01T14:45:57;51220.28;;;-143.51;23.60
44309;BME280;30022;55.846;37.340;2022-10-01T14:48:24;51222.25;;;-143.51;23.61
44309;BME280;30022;55.846;37.340;2022-10-01T14:50:52;51164.91;;;-143.51;23.68
44309;BME280;30022;55.846;37.340;2022-10-01T14:53:23;51200.50;;;-143.51;23.56
44309;BME280;30022;55.846;37.340;2022-10-01T14:55:50;51321.09;;;-143.51;23.50
44309;BME280;30022;55.846;37.340;2022-10-01T14:58:31;51307.25;;;-143.51;23.22
44309;BME280;30022;55.846;37.340;2022-10-01T15:00:58;51186.66;;;-143.51;23.51
44309;BME280;30022;55.846;37.340;2022-10-01T15:03:24;51198.53;;;-143.51;23.39
44309;BME280;30022;55.846;37.340;2022-10-01T15:05:59;51036.41;;;-143.51;23.67
44309;BME280;30022;55.846;37.340;2022-10-01T15:08:43;51083.84;;;-143.51;23.38
44309;BME280;30022;55.846;37.340;2022-10-01T15:11:17;51113.50;;;-143.51;23.44
44309;BME280;30022;55.846;37.340;2022-10-01T15:14:09;51024.53;;;-143.51;23.34
44309;BME280;30022;55.846;37.340;2022-10-01T15:16:44;51020.59;;;-143.51;23.51
44309;BME280;30022;55.846;37.340;2022-10-01T15:19:30;51075.94;;;-143.51;23.41
44309;BME280;30022;55.846;37.340;2022-10-01T15:21:57;51083.84;;;-143.51;23.34
44309;BME280;30022;55.846;37.340;2022-10-01T15:27:30;50985.00;;;-143.51;23.44
44309;BME280;30022;55.846;37.340;2022-10-01T15:30:26;50953.38;;;-143.51;23.56
44309;BME280;30022;55.846;37.340;2022-10-01T15:33:38;51032.44;;;-143.51;23.37
44309;BME280;30022;55.846;37.340;2022-10-01T15:36:15;51137.22;;;-143.51;23.34
44309;BME280;30022;55.846;37.340;2022-10-01T15:39:14;51018.59;;;-143.51;23.29
44309;BME280;30022;55.846;37.340;2022-10-01T15:41:52;51060.13;;;-143.51;23.46
44309;BME280;30022;55.846;37.340;2022-10-01T15:44:41;51174.78;;;-143.51;23.35
44309;BME280;30022;55.846;37.340;2022-10-01T15:47:23;51184.69;;;-143.51;23.25
44309;BME280;30022;55.846;37.340;2022-10-01T15:52:36;51081.88;;;-143.51;22.87